sensor_id;sensor_type;location;lat;lon;timestamp;P1;durP1;ratioP1;P2;durP2;ratioP2
8594;SDS011;4335;48.860;9.198;2023-05-29T00:00:04;7.33;;;4.83;;
8594;SDS011;4335;48.860;9.198;2023-05-29T00:02:33;5.10;;;4.17;;
8594;SDS011;4335;48.860;9.198;2023-05-29T00:05:02;5.67;;;3.90;;
8594;SDS011;4335;48.860;9.198;2023-05-29T00:07:30;7.63;;;4.00;;
8594;SDS011;4335;48.860;9.198;2023-05-29T00:10:01;6.53;;;3.87;;
8594;SDS011;4335;48.860;9.198;2023-05-29T00:12:29;7.37;;;4.00;;
8594;SDS011;4335;48.860;9.198;2023-05-29T00:14:57;5.13;;;3.63;;
8594;SDS011;4335;48.860;9.198;2023-05-29T00:17:33;5.10;;;3.37;;
8594;SDS011;4335;48.860;9.198;2023-05-29T00:20:06;7.60;;;3.90;;
8594;SDS011;4335;48.860;9.198;2023-05-29T00:22:36;4.93;;;3.60;;
8594;SDS011;4335;48.860;9.198;2023-05-29T00:25:10;4.60;;;3.23;;
8594;SDS011;4335;48.860;9.198;2023-05-29T00:27:37;4.23;;;3.67;;
8594;SDS011;4335;48.860;9.198;2023-05-29T00:30:07;8.57;;;3.77;;
8594;SDS011;4335;48.860;9.198;2023-05-29T00:32:35;6.30;;;3.60;;
8594;SDS011;4335;48.860;9.198;2023-05-29T00:35:10;5.23;;;3.87;;
8594;SDS011;4335;48.860;9.198;2023-05-29T00:37:37;4.93;;;3.77;;
8594;SDS011;4335;48.860;9.198;2023-05-29T00:40:05;5.00;;;3.37;;
8594;SDS011;4335;48.860;9.198;2023-05-29T00:42:33;5.07;;;4.00;;
8594;SDS011;4335;48.860;9.198;2023-05-29T00:45:01;6.00;;;3.70;;
8594;SDS011;4335;48.860;9.198;2023-05-29T00:47:28;6.10;;;4.10;;
8594;SDS011;4335;48.860;9.198;2023-05-29T00:49:59;5.93;;;3.30;;
8594;SDS011;4335;48.860;9.198;2023-05-29T00:52:33;7.00;;;3.57;;
8594;SDS011;4335;48.860;9.198;2023-05-29T00:55:00;5.40;;;3.07;;
8594;SDS011;4335;48.860;9.198;2023-05-29T00:57:28;5.03;;;3.70;;
8594;SDS011;4335;48.860;9.198;2023-05-29T01:00:05;4.57;;;3.83;;
8594;SDS011;4335;48.860;9.198;2023-05-29T01:02:44;5.93;;;3.97;;
8594;SDS011;4335;48.860;9.198;2023-05-29T01:05:13;5.30;;;3.57;;
8594;SDS011;4335;48.860;9.198;2023-05-29T01:07:42;5.27;;;3.80;;
8594;SDS011;4335;48.860;9.198;2023-05-29T01:10:10;5.33;;;3.60;;
8594;SDS011;4335;48.860;9.198;2023-05-29T01:12:40;6.13;;;3.30;;
8594;SDS011;4335;48.860;9.198;2023-05-29T01:15:22;9.23;;;3.73;;
8594;SDS011;4335;48.860;9.198;2023-05-29T01:18:04;5.80;;;3.63;;
8594;SDS011;4335;48.860;9.198;2023-05-29T01:20:38;4.73;;;3.50;;
8594;SDS011;4335;48.860;9.198;2023-05-29T01:23:26;5.07;;;3.10;;
8594;SDS011;4335;48.860;9.198;2023-05-29T01:26:11;5.63;;;3.47;;
8594;SDS011;4335;48.860;9.198;2023-05-29T01:28:53;6.30;;;3.40;;
8594;SDS011;4335;48.860;9.198;2023-05-29T01:31:25;5.10;;;3.53;;
8594;SDS011;4335;48.860;9.198;2023-05-29T01:33:54;5.57;;;3.97;;
8594;SDS011;4335;48.860;9.198;2023-05-29T01:36:22;4.30;;;3.23;;
8594;SDS011;4335;48.860;9.198;2023-05-29T01:38:50;5.17;;;3.47;;
8594;SDS011;4335;48.860;9.198;2023-05-29T01:41:19;4.67;;;3.57;;
8594;SDS011;4335;48.860;9.198;2023-05-29T01:43:48;6.90;;;3.43;;
8594;SDS011;4335;48.860;9.198;2023-05-29T01:46:20;4.63;;;3.33;;
8594;SDS011;4335;48.860;9.198;2023-05-29T01:48:50;4.50;;;3.13;;
8594;SDS011;4335;48.860;9.198;2023-05-29T01:51:19;4.77;;;3.63;;
8594;SDS011;4335;48.860;9.198;2023-05-29T01:53:47;5.17;;;3.70;;
8594;SDS011;4335;48.860;9.198;2023-05-29T01:56:17;7.70;;;3.70;;
8594;SDS011;4335;48.860;9.198;2023-05-29T01:58:45;4.00;;;3.30;;
8594;SDS011;4335;48.860;9.198;2023-05-29T02:01:13;4.20;;;3.80;;
8594;SDS011;4335;48.860;9.198;2023-05-29T02:03:45;5.53;;;3.53;;
8594;SDS011;4335;48.860;9.198;2023-05-29T02:06:13;6.03;;;4.47;;
8594;SDS011;4335;48.860;9.198;2023-05-29T02:08:43;9.03;;;5.27;;
8594;SDS011;4335;48.860;9.198;2023-05-29T02:11:13;6.10;;;4.53;;
8594;SDS011;4335;48.860;9.198;2023-05-29T02:13:43;6.00;;;3.97;;
8594;SDS011;4335;48.860;9.198;2023-05-29T02:16:13;5.13;;;3.97;;
8594;SDS011;4335;48.860;9.198;2023-05-29T02:18:42;6.97;;;3.97;;
8594;SDS011;4335;48.860;9.198;2023-05-29T02:21:14;5.67;;;4.20;;
8594;SDS011;4335;48.860;9.198;2023-05-29T02:23:41;7.67;;;4.30;;
8594;SDS011;4335;48.860;9.198;2023-05-29T02:26:12;6.60;;;4.87;;
8594;SDS011;4335;48.860;9.198;2023-05-29T02:28:40;9.40;;;5.30;;
8594;SDS011;4335;48.860;9.198;2023-05-29T02:31:17;6.97;;;4.17;;
8594;SDS011;4335;48.860;9.198;2023-05-29T02:33:44;7.83;;;4.73;;
8594;SDS011;4335;48.860;9.198;2023-05-29T02:36:16;9.73;;;5.13;;
8594;SDS011;4335;48.860;9.198;2023-05-29T02:38:43;5.13;;;3.90;;
8594;SDS011;4335;48.860;9.198;2023-05-29T02:41:17;8.13;;;5.03;;
8594;SDS011;4335;48.860;9.198;2023-05-29T02:43:47;6.40;;;4.77;;
8594;SDS011;4335;48.860;9.198;2023-05-29T02:46:14;9.57;;;4.93;;
8594;SDS011;4335;48.860;9.198;2023-05-29T02:48:42;7.37;;;4.57;;
8594;SDS011;4335;48.860;9.198;2023-05-29T02:51:12;7.37;;;4.70;;
8594;SDS011;4335;48.860;9.198;2023-05-29T02:53:51;5.77;;;4.53;;
8594;SDS011;4335;48.860;9.198;2023-05-29T02:56:19;7.13;;;5.27;;
8594;SDS011;4335;48.860;9.198;2023-05-29T02:58:52;6.40;;;4.47;;
8594;SDS011;4335;48.860;9.198;2023-05-29T03:01:27;7.00;;;4.67;;
8594;SDS011;4335;48.860;9.198;2023-05-29T03:03:58;6.53;;;4.03;;
8594;SDS011;4335;48.860;9.198;2023-05-29T03:06:28;7.33;;;4.70;;
8594;SDS011;4335;48.860;9.198;2023-05-29T03:08:58;6.97;;;4.77;;
8594;SDS011;4335;48.860;9.198;2023-05-29T03:11:26;5.57;;;4.67;;
8594;SDS011;4335;48.860;9.198;2023-05-29T03:14:01;6.70;;;4.87;;
8594;SDS011;4335;48.860;9.198;2023-05-29T03:16:31;6.90;;;4.30;;
8594;SDS011;4335;48.860;9.198;2023-05-29T03:18:58;6.47;;;4.80;;
8594;SDS011;4335;48.860;9.198;2023-05-29T03:21:26;6.73;;;5.33;;
8594;SDS011;4335;48.860;9.198;2023-05-29T03:23:53;7.37;;;5.10;;
8594;SDS011;4335;48.860;9.198;2023-05-29T03:26:27;7.63;;;4.90;;
8594;SDS011;4335;48.860;9.198;2023-05-29T03:28:55;7.83;;;5.00;;
8594;SDS011;4335;48.860;9.198;2023-05-29T03:31:36;6.47;;;5.10;;
8594;SDS011;4335;48.860;9.198;2023-05-29T03:34:04;7.73;;;5.37;;
8594;SDS011;4335;48.860;9.198;2023-05-29T03:36:34;9.57;;;5.73;;
8594;SDS011;4335;48.860;9.198;2023-05-29T03:39:05;6.90;;;4.83;;
8594;SDS011;4335;48.860;9.198;2023-05-29T03:41:34;6.10;;;4.90;;
8594;SDS011;4335;48.860;9.198;2023-05-29T03:44:01;6.40;;;4.80;;
8594;SDS011;4335;48.860;9.198;2023-05-29T03:46:29;7.13;;;5.23;;
8594;SDS011;4335;48.860;9.198;2023-05-29T03:48:57;6.90;;;4.53;;
8594;SDS011;4335;48.860;9.198;2023-05-29T03:51:28;5.97;;;4.47;;
8594;SDS011;4335;48.860;9.198;2023-05-29T03:53:56;8.00;;;5.00;;
8594;SDS011;4335;48.860;9.198;2023-05-29T03:56:23;7.53;;;4.80;;
8594;SDS011;4335;48.860;9.198;2023-05-29T03:58:58;6.20;;;4.63;;
8594;SDS011;4335;48.860;9.198;2023-05-29T04:01:28;5.83;;;4.93;;
8594;SDS011;4335;48.860;9.198;2023-05-29T04:03:58;8.27;;;4.83;;
8594;SDS011;4335;48.860;9.198;2023-05-29T04:06:26;6.47;;;4.53;;
8594;SDS011;4335;48.860;9.198;2023-05-29T04:09:00;7.77;;;4.67;;
8594;SDS011;4335;48.860;9.198;2023-05-29T04:11:27;6.73;;;4.77;;
8594;SDS011;4335;48.860;9.198;2023-05-29T04:13:55;7.57;;;4.40;;
8594;SDS011;4335;48.860;9.198;2023-05-29T04:16:23;5.63;;;4.40;;
8594;SDS011;4335;48.860;9.198;2023-05-29T04:18:51;6.27;;;4.37;;
8594;SDS011;4335;48.860;9.198;2023-05-29T04:21:18;6.63;;;4.93;;
8594;SDS011;4335;48.860;9.198;2023-05-29T04:23:58;7.33;;;4.40;;
8594;SDS011;4335;48.860;9.198;2023-05-29T04:26:28;4.70;;;3.97;;
8594;SDS011;4335;48.860;9.198;2023-05-29T04:28:57;8.23;;;5.10;;
8594;SDS011;4335;48.860;9.198;2023-05-29T04:31:27;7.27;;;4.97;;
8594;SDS011;4335;48.860;9.198;2023-05-29T04:33:54;6.80;;;4.40;;
8594;SDS011;4335;48.860;9.198;2023-05-29T04:36:22;7.07;;;4.67;;
8594;SDS011;4335;48.860;9.198;2023-05-29T04:38:53;6.03;;;4.60;;
8594;SDS011;4335;48.860;9.198;2023-05-29T04:41:22;7.60;;;4.60;;
8594;SDS011;4335;48.860;9.198;2023-05-29T04:43:54;5.43;;;4.33;;
8594;SDS011;4335;48.860;9.198;2023-05-29T04:46:25;5.67;;;4.60;;
8594;SDS011;4335;48.860;9.198;2023-05-29T04:49:00;6.90;;;4.20;;
8594;SDS011;4335;48.860;9.198;2023-05-29T04:51:32;5.03;;;4.17;;
8594;SDS011;4335;48.860;9.198;2023-05-29T04:54:08;5.93;;;4.40;;
8594;SDS011;4335;48.860;9.198;2023-05-29T04:56:37;6.77;;;3.97;;
8594;SDS011;4335;48.860;9.198;2023-05-29T04:59:08;5.57;;;4.20;;
8594;SDS011;4335;48.860;9.198;2023-05-29T05:01:36;6.63;;;4.00;;
8594;SDS011;4335;48.860;9.198;2023-05-29T05:04:13;5.17;;;4.40;;
8594;SDS011;4335;48.860;9.198;2023-05-29T05:06:50;8.03;;;4.77;;
8594;SDS011;4335;48.860;9.198;2023-05-29T05:09:20;5.17;;;3.90;;
8594;SDS011;4335;48.860;9.198;2023-05-29T05:11:50;4.63;;;4.20;;
8594;SDS011;4335;48.860;9.198;2023-05-29T05:14:18;4.80;;;4.20;;
8594;SDS011;4335;48.860;9.198;2023-05-29T05:16:53;5.40;;;4.40;;
8594;SDS011;4335;48.860;9.198;2023-05-29T05:19:23;5.53;;;4.27;;
8594;SDS011;4335;48.860;9.198;2023-05-29T05:21:50;6.77;;;4.87;;
8594;SDS011;4335;48.860;9.198;2023-05-29T05:24:17;5.53;;;4.43;;
8594;SDS011;4335;48.860;9.198;2023-05-29T05:26:45;6.93;;;4.33;;
8594;SDS011;4335;48.860;9.198;2023-05-29T05:29:12;4.10;;;3.70;;
8594;SDS011;4335;48.860;9.198;2023-05-29T05:31:42;4.63;;;3.93;;
8594;SDS011;4335;48.860;9.198;2023-05-29T05:34:11;6.17;;;3.77;;
8594;SDS011;4335;48.860;9.198;2023-05-29T05:36:41;5.40;;;4.03;;
8594;SDS011;4335;48.860;9.198;2023-05-29T05:39:11;6.17;;;4.10;;
8594;SDS011;4335;48.860;9.198;2023-05-29T05:41:39;4.77;;;3.57;;
8594;SDS011;4335;48.860;9.198;2023-05-29T05:44:06;6.83;;;4.27;;
8594;SDS011;4335;48.860;9.198;2023-05-29T05:46:36;7.60;;;4.50;;
8594;SDS011;4335;48.860;9.198;2023-05-29T05:49:06;6.63;;;3.40;;
8594;SDS011;4335;48.860;9.198;2023-05-29T05:51:35;4.20;;;3.80;;
8594;SDS011;4335;48.860;9.198;2023-05-29T05:54:02;6.27;;;3.97;;
8594;SDS011;4335;48.860;9.198;2023-05-29T05:56:30;5.23;;;4.10;;
8594;SDS011;4335;48.860;9.198;2023-05-29T05:59:10;5.27;;;4.03;;
8594;SDS011;4335;48.860;9.198;2023-05-29T06:01:37;10.10;;;5.07;;
8594;SDS011;4335;48.860;9.198;2023-05-29T06:04:06;5.50;;;4.28;;
8594;SDS011;4335;48.860;9.198;2023-05-29T06:06:40;6.13;;;3.97;;
8594;SDS011;4335;48.860;9.198;2023-05-29T06:09:14;6.63;;;4.22;;
8594;SDS011;4335;48.860;9.198;2023-05-29T06:11:41;4.88;;;4.03;;
8594;SDS011;4335;48.860;9.198;2023-05-29T06:14:11;4.88;;;4.07;;
8594;SDS011;4335;48.860;9.198;2023-05-29T06:16:39;5.10;;;3.38;;
8594;SDS011;4335;48.860;9.198;2023-05-29T06:19:06;4.25;;;3.80;;
8594;SDS011;4335;48.860;9.198;2023-05-29T06:21:44;5.70;;;4.38;;
8594;SDS011;4335;48.860;9.198;2023-05-29T06:24:12;7.15;;;3.80;;
8594;SDS011;4335;48.860;9.198;2023-05-29T06:26:39;4.75;;;3.90;;
8594;SDS011;4335;48.860;9.198;2023-05-29T06:29:09;5.78;;;4.05;;
8594;SDS011;4335;48.860;9.198;2023-05-29T06:31:37;4.55;;;3.58;;
8594;SDS011;4335;48.860;9.198;2023-05-29T06:34:07;6.25;;;4.00;;
8594;SDS011;4335;48.860;9.198;2023-05-29T06:36:34;5.03;;;3.80;;
8594;SDS011;4335;48.860;9.198;2023-05-29T06:39:03;4.65;;;3.67;;
8594;SDS011;4335;48.860;9.198;2023-05-29T06:41:34;4.72;;;3.60;;
8594;SDS011;4335;48.860;9.198;2023-05-29T06:44:10;4.00;;;3.65;;
8594;SDS011;4335;48.860;9.198;2023-05-29T06:46:38;5.90;;;3.92;;
8594;SDS011;4335;48.860;9.198;2023-05-29T06:49:11;7.80;;;4.57;;
8594;SDS011;4335;48.860;9.198;2023-05-29T06:51:38;5.88;;;4.13;;
8594;SDS011;4335;48.860;9.198;2023-05-29T06:54:10;5.93;;;4.22;;
8594;SDS011;4335;48.860;9.198;2023-05-29T06:56:39;6.43;;;4.50;;
8594;SDS011;4335;48.860;9.198;2023-05-29T06:59:06;6.88;;;4.35;;
8594;SDS011;4335;48.860;9.198;2023-05-29T07:01:36;6.40;;;4.88;;
8594;SDS011;4335;48.860;9.198;2023-05-29T07:04:07;4.70;;;4.00;;
8594;SDS011;4335;48.860;9.198;2023-05-29T07:06:38;5.10;;;3.88;;
8594;SDS011;4335;48.860;9.198;2023-05-29T07:09:08;6.47;;;3.90;;
8594;SDS011;4335;48.860;9.198;2023-05-29T07:11:37;5.57;;;3.47;;
8594;SDS011;4335;48.860;9.198;2023-05-29T07:14:05;4.18;;;3.58;;
8594;SDS011;4335;48.860;9.198;2023-05-29T07:16:32;5.65;;;4.35;;
8594;SDS011;4335;48.860;9.198;2023-05-29T07:19:00;4.85;;;3.75;;
8594;SDS011;4335;48.860;9.198;2023-05-29T07:21:27;6.78;;;3.85;;
8594;SDS011;4335;48.860;9.198;2023-05-29T07:24:00;4.25;;;3.75;;
8594;SDS011;4335;48.860;9.198;2023-05-29T07:26:35;5.97;;;4.20;;
8594;SDS011;4335;48.860;9.198;2023-05-29T07:29:02;5.03;;;3.65;;
8594;SDS011;4335;48.860;9.198;2023-05-29T07:31:30;5.82;;;4.93;;
8594;SDS011;4335;48.860;9.198;2023-05-29T07:34:03;5.05;;;3.95;;
8594;SDS011;4335;48.860;9.198;2023-05-29T07:36:31;4.63;;;3.50;;
8594;SDS011;4335;48.860;9.198;2023-05-29T07:38:58;5.80;;;4.00;;
8594;SDS011;4335;48.860;9.198;2023-05-29T07:41:26;5.88;;;4.45;;
8594;SDS011;4335;48.860;9.198;2023-05-29T07:43:54;6.50;;;4.38;;
8594;SDS011;4335;48.860;9.198;2023-05-29T07:46:25;4.90;;;4.15;;
8594;SDS011;4335;48.860;9.198;2023-05-29T07:48:55;4.85;;;3.17;;
8594;SDS011;4335;48.860;9.198;2023-05-29T07:51:23;4.97;;;3.75;;
8594;SDS011;4335;48.860;9.198;2023-05-29T07:53:51;4.63;;;3.30;;
8594;SDS011;4335;48.860;9.198;2023-05-29T07:56:18;4.47;;;3.70;;
8594;SDS011;4335;48.860;9.198;2023-05-29T07:58:51;4.57;;;3.33;;
8594;SDS011;4335;48.860;9.198;2023-05-29T08:01:23;4.55;;;3.63;;
8594;SDS011;4335;48.860;9.198;2023-05-29T08:03:51;4.50;;;4.10;;
8594;SDS011;4335;48.860;9.198;2023-05-29T08:06:25;5.97;;;3.67;;
8594;SDS011;4335;48.860;9.198;2023-05-29T08:08:52;5.05;;;3.63;;
8594;SDS011;4335;48.860;9.198;2023-05-29T08:11:21;7.38;;;3.72;;
8594;SDS011;4335;48.860;9.198;2023-05-29T08:13:48;6.15;;;4.00;;
8594;SDS011;4335;48.860;9.198;2023-05-29T08:16:16;7.10;;;4.28;;
8594;SDS011;4335;48.860;9.198;2023-05-29T08:18:55;5.88;;;3.70;;
8594;SDS011;4335;48.860;9.198;2023-05-29T08:21:25;4.75;;;3.80;;
8594;SDS011;4335;48.860;9.198;2023-05-29T08:23:53;4.13;;;3.72;;
8594;SDS011;4335;48.860;9.198;2023-05-29T08:26:23;5.55;;;3.72;;
8594;SDS011;4335;48.860;9.198;2023-05-29T08:28:54;3.97;;;3.53;;
8594;SDS011;4335;48.860;9.198;2023-05-29T08:31:21;4.85;;;4.30;;
8594;SDS011;4335;48.860;9.198;2023-05-29T08:33:51;4.28;;;3.88;;
8594;SDS011;4335;48.860;9.198;2023-05-29T08:36:21;4.53;;;4.13;;
8594;SDS011;4335;48.860;9.198;2023-05-29T08:38:52;5.10;;;3.38;;
8594;SDS011;4335;48.860;9.198;2023-05-29T08:41:25;4.60;;;4.05;;
8594;SDS011;4335;48.860;9.198;2023-05-29T08:44:01;4.13;;;3.55;;
8594;SDS011;4335;48.860;9.198;2023-05-29T08:46:31;5.03;;;3.53;;
8594;SDS011;4335;48.860;9.198;2023-05-29T08:49:01;5.80;;;3.72;;
8594;SDS011;4335;48.860;9.198;2023-05-29T08:51:33;5.15;;;3.38;;
8594;SDS011;4335;48.860;9.198;2023-05-29T08:54:11;5.70;;;3.80;;
8594;SDS011;4335;48.860;9.198;2023-05-29T08:56:40;3.83;;;3.47;;
8594;SDS011;4335;48.860;9.198;2023-05-29T08:59:09;5.68;;;3.45;;
8594;SDS011;4335;48.860;9.198;2023-05-29T09:01:37;4.78;;;3.53;;
8594;SDS011;4335;48.860;9.198;2023-05-29T09:04:09;4.20;;;3.80;;
8594;SDS011;4335;48.860;9.198;2023-05-29T09:06:36;4.63;;;3.67;;
8594;SDS011;4335;48.860;9.198;2023-05-29T09:09:06;7.28;;;4.35;;
8594;SDS011;4335;48.860;9.198;2023-05-29T09:11:37;5.55;;;4.00;;
8594;SDS011;4335;48.860;9.198;2023-05-29T09:14:11;6.45;;;3.70;;
8594;SDS011;4335;48.860;9.198;2023-05-29T09:16:53;4.60;;;3.70;;
8594;SDS011;4335;48.860;9.198;2023-05-29T09:19:23;6.78;;;4.55;;
8594;SDS011;4335;48.860;9.198;2023-05-29T09:21:52;5.88;;;4.03;;
8594;SDS011;4335;48.860;9.198;2023-05-29T09:24:28;5.20;;;3.55;;
8594;SDS011;4335;48.860;9.198;2023-05-29T09:26:56;4.03;;;3.60;;
8594;SDS011;4335;48.860;9.198;2023-05-29T09:29:25;4.80;;;4.05;;
8594;SDS011;4335;48.860;9.198;2023-05-29T09:31:52;7.72;;;6.78;;
8594;SDS011;4335;48.860;9.198;2023-05-29T09:34:28;6.60;;;4.05;;
8594;SDS011;4335;48.860;9.198;2023-05-29T09:37:00;4.63;;;3.80;;
8594;SDS011;4335;48.860;9.198;2023-05-29T09:39:45;3.92;;;3.53;;
8594;SDS011;4335;48.860;9.198;2023-05-29T09:42:17;5.28;;;3.63;;
8594;SDS011;4335;48.860;9.198;2023-05-29T09:44:48;4.15;;;3.40;;
8594;SDS011;4335;48.860;9.198;2023-05-29T09:47:18;5.65;;;3.75;;
8594;SDS011;4335;48.860;9.198;2023-05-29T09:49:50;5.35;;;3.78;;
8594;SDS011;4335;48.860;9.198;2023-05-29T09:52:20;6.63;;;3.78;;
8594;SDS011;4335;48.860;9.198;2023-05-29T09:54:49;3.83;;;3.40;;
8594;SDS011;4335;48.860;9.198;2023-05-29T09:57:20;3.60;;;2.97;;
8594;SDS011;4335;48.860;9.198;2023-05-29T09:59:49;3.83;;;3.53;;
8594;SDS011;4335;48.860;9.198;2023-05-29T10:02:19;4.38;;;3.70;;
8594;SDS011;4335;48.860;9.198;2023-05-29T10:04:49;3.97;;;3.58;;
8594;SDS011;4335;48.860;9.198;2023-05-29T10:07:19;4.25;;;3.08;;
8594;SDS011;4335;48.860;9.198;2023-05-29T10:09:52;5.63;;;3.30;;
8594;SDS011;4335;48.860;9.198;2023-05-29T10:12:25;4.35;;;3.28;;
8594;SDS011;4335;48.860;9.198;2023-05-29T10:14:54;3.63;;;2.95;;
8594;SDS011;4335;48.860;9.198;2023-05-29T10:17:25;4.60;;;3.50;;
8594;SDS011;4335;48.860;9.198;2023-05-29T10:20:04;5.18;;;3.40;;
8594;SDS011;4335;48.860;9.198;2023-05-29T10:22:36;4.65;;;3.67;;
8594;SDS011;4335;48.860;9.198;2023-05-29T10:25:10;3.60;;;3.20;;
8594;SDS011;4335;48.860;9.198;2023-05-29T10:27:42;6.72;;;3.55;;
8594;SDS011;4335;48.860;9.198;2023-05-29T10:30:12;4.65;;;3.65;;
8594;SDS011;4335;48.860;9.198;2023-05-29T10:32:55;5.53;;;4.28;;
8594;SDS011;4335;48.860;9.198;2023-05-29T10:35:39;5.72;;;3.00;;
8594;SDS011;4335;48.860;9.198;2023-05-29T10:38:14;5.03;;;3.75;;
8594;SDS011;4335;48.860;9.198;2023-05-29T10:40:46;4.90;;;3.80;;
8594;SDS011;4335;48.860;9.198;2023-05-29T10:43:29;5.35;;;3.55;;
8594;SDS011;4335;48.860;9.198;2023-05-29T10:45:58;7.32;;;3.60;;
8594;SDS011;4335;48.860;9.198;2023-05-29T10:48:41;4.13;;;3.33;;
8594;SDS011;4335;48.860;9.198;2023-05-29T10:54:06;5.05;;;3.10;;
8594;SDS011;4335;48.860;9.198;2023-05-29T10:56:32;5.73;;;3.27;;
8594;SDS011;4335;48.860;9.198;2023-05-29T10:58:59;3.97;;;3.27;;
8594;SDS011;4335;48.860;9.198;2023-05-29T11:01:29;5.40;;;3.50;;
8594;SDS011;4335;48.860;9.198;2023-05-29T11:06:54;3.90;;;3.00;;
8594;SDS011;4335;48.860;9.198;2023-05-29T11:09:29;4.33;;;3.30;;
8594;SDS011;4335;48.860;9.198;2023-05-29T11:12:15;4.47;;;3.07;;
8594;SDS011;4335;48.860;9.198;2023-05-29T11:14:54;6.03;;;3.67;;
8594;SDS011;4335;48.860;9.198;2023-05-29T11:17:28;5.03;;;3.37;;
8594;SDS011;4335;48.860;9.198;2023-05-29T11:19:55;3.77;;;2.83;;
8594;SDS011;4335;48.860;9.198;2023-05-29T11:22:23;3.80;;;2.77;;
8594;SDS011;4335;48.860;9.198;2023-05-29T11:24:56;5.57;;;3.33;;
8594;SDS011;4335;48.860;9.198;2023-05-29T11:27:25;4.67;;;3.03;;
8594;SDS011;4335;48.860;9.198;2023-05-29T11:29:52;4.53;;;3.47;;
8594;SDS011;4335;48.860;9.198;2023-05-29T11:32:20;4.97;;;3.40;;
8594;SDS011;4335;48.860;9.198;2023-05-29T11:34:51;5.50;;;3.33;;
8594;SDS011;4335;48.860;9.198;2023-05-29T11:37:27;4.17;;;3.20;;
8594;SDS011;4335;48.860;9.198;2023-05-29T11:40:00;4.57;;;3.43;;
8594;SDS011;4335;48.860;9.198;2023-05-29T11:42:33;3.97;;;3.10;;
8594;SDS011;4335;48.860;9.198;2023-05-29T11:45:17;4.40;;;2.80;;
8594;SDS011;4335;48.860;9.198;2023-05-29T11:47:52;4.07;;;2.80;;
8594;SDS011;4335;48.860;9.198;2023-05-29T11:50:23;4.20;;;3.37;;
8594;SDS011;4335;48.860;9.198;2023-05-29T11:52:50;3.10;;;2.70;;
8594;SDS011;4335;48.860;9.198;2023-05-29T11:55:18;4.50;;;3.00;;
8594;SDS011;4335;48.860;9.198;2023-05-29T11:57:46;3.93;;;3.20;;
8594;SDS011;4335;48.860;9.198;2023-05-29T12:00:16;5.03;;;3.27;;
8594;SDS011;4335;48.860;9.198;2023-05-29T12:02:44;4.77;;;3.07;;
8594;SDS011;4335;48.860;9.198;2023-05-29T12:05:15;7.23;;;3.03;;
8594;SDS011;4335;48.860;9.198;2023-05-29T12:07:47;4.43;;;3.00;;
8594;SDS011;4335;48.860;9.198;2023-05-29T12:10:21;3.63;;;3.10;;
8594;SDS011;4335;48.860;9.198;2023-05-29T12:12:49;3.90;;;3.50;;
8594;SDS011;4335;48.860;9.198;2023-05-29T12:15:17;5.07;;;3.20;;
8594;SDS011;4335;48.860;9.198;2023-05-29T12:17:44;3.47;;;2.60;;
8594;SDS011;4335;48.860;9.198;2023-05-29T12:20:12;4.33;;;2.80;;
8594;SDS011;4335;48.860;9.198;2023-05-29T12:22:40;3.70;;;2.93;;
8594;SDS011;4335;48.860;9.198;2023-05-29T12:25:09;5.13;;;2.53;;
8594;SDS011;4335;48.860;9.198;2023-05-29T12:27:38;3.53;;;2.87;;
8594;SDS011;4335;48.860;9.198;2023-05-29T12:30:09;4.13;;;2.47;;
8594;SDS011;4335;48.860;9.198;2023-05-29T12:32:38;4.77;;;2.50;;
8594;SDS011;4335;48.860;9.198;2023-05-29T12:35:12;3.70;;;3.30;;
8594;SDS011;4335;48.860;9.198;2023-05-29T12:37:44;3.20;;;2.90;;
8594;SDS011;4335;48.860;9.198;2023-05-29T12:40:14;3.43;;;2.77;;
8594;SDS011;4335;48.860;9.198;2023-05-29T12:42:53;5.83;;;3.20;;
8594;SDS011;4335;48.860;9.198;2023-05-29T12:45:27;3.33;;;2.70;;
8594;SDS011;4335;48.860;9.198;2023-05-29T12:47:56;4.07;;;3.00;;
8594;SDS011;4335;48.860;9.198;2023-05-29T12:50:24;3.80;;;3.00;;
8594;SDS011;4335;48.860;9.198;2023-05-29T12:53:00;3.50;;;3.20;;
8594;SDS011;4335;48.860;9.198;2023-05-29T12:55:32;4.07;;;2.90;;
8594;SDS011;4335;48.860;9.198;2023-05-29T12:58:03;4.93;;;2.93;;
8594;SDS011;4335;48.860;9.198;2023-05-29T13:00:30;3.47;;;2.83;;
8594;SDS011;4335;48.860;9.198;2023-05-29T13:03:00;4.83;;;3.33;;
8594;SDS011;4335;48.860;9.198;2023-05-29T13:05:27;7.07;;;3.00;;
8594;SDS011;4335;48.860;9.198;2023-05-29T13:07:53;3.20;;;2.90;;
8594;SDS011;4335;48.860;9.198;2023-05-29T13:10:20;4.00;;;2.90;;
8594;SDS011;4335;48.860;9.198;2023-05-29T13:12:48;4.43;;;3.20;;
8594;SDS011;4335;48.860;9.198;2023-05-29T13:15:19;3.30;;;2.67;;
8594;SDS011;4335;48.860;9.198;2023-05-29T13:17:47;4.70;;;2.90;;
8594;SDS011;4335;48.860;9.198;2023-05-29T13:20:19;3.47;;;2.90;;
8594;SDS011;4335;48.860;9.198;2023-05-29T13:22:49;6.77;;;3.43;;
8594;SDS011;4335;48.860;9.198;2023-05-29T13:25:16;4.57;;;3.17;;
8594;SDS011;4335;48.860;9.198;2023-05-29T13:27:51;3.87;;;3.30;;
8594;SDS011;4335;48.860;9.198;2023-05-29T13:30:19;4.10;;;2.60;;
8594;SDS011;4335;48.860;9.198;2023-05-29T13:32:47;2.73;;;2.53;;
8594;SDS011;4335;48.860;9.198;2023-05-29T13:35:16;4.30;;;2.90;;
8594;SDS011;4335;48.860;9.198;2023-05-29T13:37:49;4.17;;;2.93;;
8594;SDS011;4335;48.860;9.198;2023-05-29T13:40:16;3.77;;;3.37;;
8594;SDS011;4335;48.860;9.198;2023-05-29T13:42:45;4.63;;;2.97;;
8594;SDS011;4335;48.860;9.198;2023-05-29T13:45:20;6.87;;;3.60;;
8594;SDS011;4335;48.860;9.198;2023-05-29T13:47:46;7.67;;;3.37;;
8594;SDS011;4335;48.860;9.198;2023-05-29T13:50:16;4.37;;;3.70;;
8594;SDS011;4335;48.860;9.198;2023-05-29T13:52:43;5.97;;;3.47;;
8594;SDS011;4335;48.860;9.198;2023-05-29T13:55:12;3.50;;;2.93;;
8594;SDS011;4335;48.860;9.198;2023-05-29T14:00:33;4.30;;;3.10;;
8594;SDS011;4335;48.860;9.198;2023-05-29T14:03:00;4.77;;;3.60;;
8594;SDS011;4335;48.860;9.198;2023-05-29T14:05:30;4.33;;;3.37;;
8594;SDS011;4335;48.860;9.198;2023-05-29T14:07:59;3.93;;;3.30;;
8594;SDS011;4335;48.860;9.198;2023-05-29T14:10:32;4.10;;;2.83;;
8594;SDS011;4335;48.860;9.198;2023-05-29T14:13:05;3.80;;;3.17;;
8594;SDS011;4335;48.860;9.198;2023-05-29T14:15:32;3.73;;;3.20;;
8594;SDS011;4335;48.860;9.198;2023-05-29T14:17:59;4.27;;;3.60;;
8594;SDS011;4335;48.860;9.198;2023-05-29T14:20:30;5.03;;;3.20;;
8594;SDS011;4335;48.860;9.198;2023-05-29T14:22:57;3.93;;;2.90;;
8594;SDS011;4335;48.860;9.198;2023-05-29T14:25:23;4.77;;;2.60;;
8594;SDS011;4335;48.860;9.198;2023-05-29T14:27:50;4.37;;;2.97;;
8594;SDS011;4335;48.860;9.198;2023-05-29T14:30:19;3.33;;;3.03;;
8594;SDS011;4335;48.860;9.198;2023-05-29T14:32:47;4.50;;;3.47;;
8594;SDS011;4335;48.860;9.198;2023-05-29T14:35:19;3.20;;;2.90;;
8594;SDS011;4335;48.860;9.198;2023-05-29T14:37:46;4.90;;;3.43;;
8594;SDS011;4335;48.860;9.198;2023-05-29T14:40:15;3.87;;;3.07;;
8594;SDS011;4335;48.860;9.198;2023-05-29T14:42:41;4.17;;;2.90;;
8594;SDS011;4335;48.860;9.198;2023-05-29T14:45:08;4.13;;;2.97;;
8594;SDS011;4335;48.860;9.198;2023-05-29T14:47:35;3.63;;;2.93;;
8594;SDS011;4335;48.860;9.198;2023-05-29T14:50:06;5.57;;;2.87;;
8594;SDS011;4335;48.860;9.198;2023-05-29T14:52:33;3.67;;;2.73;;
8594;SDS011;4335;48.860;9.198;2023-05-29T14:55:01;3.13;;;2.70;;
8594;SDS011;4335;48.860;9.198;2023-05-29T14:57:28;3.43;;;2.90;;
8594;SDS011;4335;48.860;9.198;2023-05-29T14:59:57;4.33;;;2.93;;
8594;SDS011;4335;48.860;9.198;2023-05-29T15:02:24;3.83;;;3.00;;
8594;SDS011;4335;48.860;9.198;2023-05-29T15:04:51;4.20;;;2.83;;
8594;SDS011;4335;48.860;9.198;2023-05-29T15:07:20;3.13;;;2.57;;
8594;SDS011;4335;48.860;9.198;2023-05-29T15:09:47;6.00;;;3.33;;
8594;SDS011;4335;48.860;9.198;2023-05-29T15:12:17;4.20;;;3.23;;
8594;SDS011;4335;48.860;9.198;2023-05-29T15:14:44;3.20;;;2.80;;
8594;SDS011;4335;48.860;9.198;2023-05-29T15:17:10;3.07;;;2.60;;
8594;SDS011;4335;48.860;9.198;2023-05-29T15:19:43;3.83;;;2.93;;
8594;SDS011;4335;48.860;9.198;2023-05-29T15:22:12;3.40;;;2.90;;
8594;SDS011;4335;48.860;9.198;2023-05-29T15:24:40;5.40;;;2.83;;
8594;SDS011;4335;48.860;9.198;2023-05-29T15:27:07;4.07;;;3.07;;
8594;SDS011;4335;48.860;9.198;2023-05-29T15:29:34;3.67;;;3.03;;
8594;SDS011;4335;48.860;9.198;2023-05-29T15:32:02;3.20;;;2.90;;
8594;SDS011;4335;48.860;9.198;2023-05-29T15:34:28;3.60;;;2.63;;
8594;SDS011;4335;48.860;9.198;2023-05-29T15:36:55;3.47;;;2.80;;
8594;SDS011;4335;48.860;9.198;2023-05-29T15:39:22;3.17;;;2.77;;
8594;SDS011;4335;48.860;9.198;2023-05-29T15:41:54;3.10;;;2.60;;